Search for airport 
image banner adimage banner adimage banner ad
image banner ad

54PA - Pine Bottom

Located in Martinsburg, United States

ICAO - 54PA, IATA -

Data provided by Airmate  

General information

Coordinates: N40°14'10" W78°18'19"
Elevation is 1504 feet MSL.
 
View others Airports in Pennsylvania

Operational data

Special qualification required
Current time UTC:
Current local time:
Weather at : KAOO - Altoona-Blair County ( 7 km )
METAR: KAOO 071153Z AUTO 00000KT 10SM BKN095 OVC110 06/03 A2989 RMK AO2 SLP126 T00610028 10067 20033 56000
TAF: KAOO 071127Z 0712/0812 16006KT P6SM SCT100 BKN250 FM071500 19006KT P6SM -RA OVC050 FM080100 27007KT P6SM BKN035
View NOTAMs / SUP AIP / TFR affecting this airport [VIEW]
Communications frequencies: [VIEW]

Runways:

Airport contact information

Address: Martinsburg United States

Other aviation service providers

Flight schools

Pine Bottom Aviation Services, Llc

Pine Bottom Aviation Services, Llc

Satellite view of 54PA